Time;durP1;ratioP1;P1;durP2;ratioP2;P2;SDS_P1;SDS_P2;PMS_P1;PMS_P2;Temp;Humidity;BMP_temperature;BMP_pressure;BME280_temperature;BME280_humidity;BME280_pressure;Samples;Min_cycle;Max_cycle;Signal;HPM_P1;HPM_P2
2023/04/12 00:01:27;;;;;;;6.07;2.05;;;6.90;96.20;;;;;;5089228;28;20024;-67
2023/04/12 00:03:53;;;;;;;8.00;2.40;;;6.80;96.50;;;;;;5088892;28;20028;-67
2023/04/12 00:06:24;;;;;;;11.30;2.70;;;6.70;96.10;;;;;;5075676;28;20025;-66
2023/04/12 00:08:50;;;;;;;8.40;2.85;;;6.60;95.30;;;;;;5090524;28;20054;-65
2023/04/12 00:11:16;;;;;;;6.93;2.70;;;6.60;97.70;;;;;;5079507;28;20036;-65
2023/04/12 00:13:42;;;;;;;8.10;2.65;;;6.60;95.60;;;;;;5075438;28;20024;-65
2023/04/12 00:16:08;;;;;;;6.78;2.60;;;6.50;95.70;;;;;;5090900;28;20036;-65
2023/04/12 00:18:36;;;;;;;11.00;3.10;;;6.50;95.10;;;;;;5094864;28;20526;-67
2023/04/12 00:21:02;;;;;;;8.85;2.95;;;6.50;94.20;;;;;;5078269;28;20364;-67
2023/04/12 00:23:28;;;;;;;8.20;2.70;;;6.40;94.20;;;;;;5088124;28;20107;-67
2023/04/12 00:25:56;;;;;;;10.00;3.03;;;6.40;93.20;;;;;;5089814;28;20161;-67
2023/04/12 00:28:22;;;;;;;10.52;3.35;;;6.30;93.00;;;;;;5085871;28;20082;-68
2023/04/12 00:30:47;;;;;;;13.13;3.72;;;6.30;91.60;;;;;;5076522;28;20111;-68
2023/04/12 00:33:13;;;;;;;12.23;3.95;;;6.30;90.80;;;;;;5085373;28;20056;-68
2023/04/12 00:35:41;;;;;;;9.00;3.15;;;6.20;89.00;;;;;;5084610;28;20028;-67
2023/04/12 00:38:09;;;;;;;11.73;3.60;;;6.20;87.40;;;;;;5094950;28;20103;-67
2023/04/12 00:40:39;;;;;;;6.40;3.20;;;6.10;87.10;;;;;;5083106;28;20036;-68
2023/04/12 00:43:05;;;;;;;8.60;3.40;;;6.10;86.20;;;;;;5082642;28;20028;-68
2023/04/12 00:45:31;;;;;;;10.55;3.33;;;6.10;87.10;;;;;;5080648;28;20029;-68
2023/04/12 00:47:56;;;;;;;10.50;4.10;;;6.10;87.10;;;;;;5076085;28;20025;-69
2023/04/12 00:50:22;;;;;;;6.68;3.85;;;6.10;86.30;;;;;;5082934;28;20413;-68
2023/04/12 00:52:49;;;;;;;11.57;4.13;;;6.10;86.80;;;;;;5093467;28;20402;-68
2023/04/12 00:55:14;;;;;;;9.55;4.40;;;6.10;87.00;;;;;;5091953;28;20097;-68
2023/04/12 00:57:40;;;;;;;10.38;4.25;;;6.00;85.90;;;;;;5095815;28;20027;-68
2023/04/12 01:00:11;;;;;;;9.35;3.80;;;6.00;84.90;;;;;;5092725;28;20060;-68
2023/04/12 01:02:37;;;;;;;11.73;4.72;;;6.00;84.80;;;;;;5075843;28;20028;-67
2023/04/12 01:05:05;;;;;;;9.52;4.20;;;6.00;84.90;;;;;;5080176;28;20033;-68
2023/04/12 01:07:45;;;;;;;9.10;3.72;;;6.00;83.70;;;;;;5075160;28;20025;-68
2023/04/12 01:10:35;;;;;;;8.60;3.70;;;6.00;83.80;;;;;;5082501;28;20024;-67
2023/04/12 01:13:29;;;;;;;10.13;3.83;;;5.90;84.90;;;;;;5075754;28;20025;-68
2023/04/12 01:16:09;;;;;;;9.57;3.97;;;6.00;86.00;;;;;;5074226;28;20041;-68
2023/04/12 01:18:44;;;;;;;10.23;4.03;;;5.90;85.50;;;;;;5075167;28;20055;-67
2023/04/12 01:21:18;;;;;;;7.97;2.80;;;5.90;85.20;;;;;;5086598;28;20016;-67
2023/04/12 01:23:57;;;;;;;6.13;3.20;;;5.90;83.70;;;;;;5097871;28;20107;-68
2023/04/12 01:26:44;;;;;;;6.32;2.75;;;5.90;85.30;;;;;;5079334;28;20362;-67
2023/04/12 01:29:19;;;;;;;9.07;3.05;;;5.90;86.90;;;;;;5077935;28;20028;-67
2023/04/12 01:31:56;;;;;;;4.47;2.28;;;5.90;86.50;;;;;;5099036;28;20317;-68
2023/04/12 01:34:23;;;;;;;4.85;2.28;;;5.90;88.80;;;;;;5084628;28;20029;-68
2023/04/12 01:36:54;;;;;;;5.30;2.05;;;6.00;89.20;;;;;;5099134;28;20032;-68
2023/04/12 01:39:21;;;;;;;5.10;1.95;;;5.90;88.20;;;;;;5085007;28;20040;-68
2023/04/12 01:41:47;;;;;;;4.82;1.80;;;5.90;89.60;;;;;;5094616;28;20115;-68
2023/04/12 01:44:17;;;;;;;4.10;1.60;;;5.90;89.50;;;;;;5083457;28;20375;-68
2023/04/12 01:46:45;;;;;;;5.50;1.80;;;5.90;90.80;;;;;;5078671;28;20508;-68
2023/04/12 01:49:11;;;;;;;4.20;1.60;;;5.90;91.30;;;;;;5078818;28;20039;-68
2023/04/12 01:51:46;;;;;;;4.47;2.05;;;6.00;92.40;;;;;;5085326;28;20028;-68
2023/04/12 01:54:36;;;;;;;4.30;1.60;;;6.00;92.50;;;;;;5089773;28;20035;-68
2023/04/12 01:57:03;;;;;;;5.30;1.80;;;6.00;91.80;;;;;;5091251;28;20490;-68
2023/04/12 01:59:42;;;;;;;6.18;2.17;;;6.00;95.30;;;;;;5091225;28;20496;-68
2023/04/12 02:02:09;;;;;;;4.78;1.83;;;6.00;93.20;;;;;;5078534;28;20435;-68
2023/04/12 02:04:35;;;;;;;4.05;1.70;;;5.90;92.20;;;;;;5080515;28;20421;-68
2023/04/12 02:07:02;;;;;;;5.00;1.83;;;5.80;92.20;;;;;;5081170;28;20039;-68
2023/04/12 02:09:28;;;;;;;5.78;1.80;;;5.80;92.10;;;;;;5086176;28;20032;-68
2023/04/12 02:11:56;;;;;;;4.93;1.70;;;5.80;90.70;;;;;;5078707;28;20470;-68
2023/04/12 02:14:22;;;;;;;4.20;1.75;;;5.80;89.70;;;;;;5078256;28;20024;-68
2023/04/12 02:16:53;;;;;;;4.63;1.90;;;5.80;91.00;;;;;;5078391;28;20044;-68
2023/04/12 02:19:19;;;;;;;4.20;1.80;;;5.80;91.10;;;;;;5090178;28;20055;-68
2023/04/12 02:21:45;;;;;;;3.08;1.58;;;5.80;90.40;;;;;;5081246;28;20043;-68
2023/04/12 02:24:10;;;;;;;4.40;1.75;;;5.70;89.00;;;;;;5086103;28;20043;-68
2023/04/12 02:26:37;;;;;;;6.72;2.10;;;5.70;88.00;;;;;;5077470;28;20036;-68
2023/04/12 02:29:06;;;;;;;5.55;2.03;;;5.70;86.70;;;;;;5084915;28;20115;-68
2023/04/12 02:31:34;;;;;;;6.97;1.80;;;5.70;86.10;;;;;;5078464;28;20074;-68
2023/04/12 02:34:00;;;;;;;6.25;2.00;;;5.70;85.90;;;;;;5076188;28;20055;-69
2023/04/12 02:36:25;;;;;;;4.88;2.13;;;5.70;85.00;;;;;;5087249;28;20059;-68
2023/04/12 02:38:55;;;;;;;4.15;1.65;;;5.70;85.60;;;;;;5091039;28;20035;-68
2023/04/12 02:41:24;;;;;;;6.30;1.98;;;5.70;85.90;;;;;;5079739;28;20036;-68
2023/04/12 02:43:50;;;;;;;4.05;2.00;;;5.70;86.20;;;;;;5095608;28;20024;-68
2023/04/12 02:46:26;;;;;;;4.57;2.00;;;5.70;86.90;;;;;;5081569;28;20302;-68
2023/04/12 02:48:51;;;;;;;4.50;2.22;;;5.70;86.30;;;;;;5082690;28;20017;-68
2023/04/12 02:51:17;;;;;;;4.30;1.98;;;5.70;86.80;;;;;;5090403;28;20034;-68
2023/04/12 02:53:43;;;;;;;4.93;2.08;;;5.70;86.40;;;;;;5081522;28;20024;-68
2023/04/12 02:56:08;;;;;;;6.05;2.20;;;5.70;85.70;;;;;;5095565;28;20413;-68
2023/04/12 02:58:35;;;;;;;4.97;2.95;;;5.70;85.90;;;;;;5089018;28;20048;-67
2023/04/12 03:01:02;;;;;;;5.65;2.03;;;5.70;85.10;;;;;;5077718;28;20059;-67
2023/04/12 03:03:30;;;;;;;3.92;2.00;;;5.70;85.80;;;;;;5091165;28;20118;-66
2023/04/12 03:05:57;;;;;;;5.10;1.95;;;5.70;86.60;;;;;;5075042;28;20494;-67
2023/04/12 03:08:23;;;;;;;4.63;2.10;;;5.80;87.20;;;;;;5076032;28;20029;-67
2023/04/12 03:10:48;;;;;;;4.43;1.95;;;5.80;86.90;;;;;;5084569;28;20711;-67
2023/04/12 03:13:14;;;;;;;6.72;2.22;;;5.80;87.20;;;;;;5070782;28;20099;-68
2023/04/12 03:15:40;;;;;;;4.82;2.05;;;5.80;86.60;;;;;;5084466;28;20035;-68
2023/04/12 03:18:08;;;;;;;5.72;2.30;;;5.80;86.40;;;;;;5081550;28;20028;-68
2023/04/12 03:20:34;;;;;;;5.00;2.10;;;5.70;86.70;;;;;;5079822;28;20134;-67
2023/04/12 03:23:02;;;;;;;4.80;2.38;;;5.70;85.50;;;;;;5080010;28;20051;-68
2023/04/12 03:25:31;;;;;;;5.93;2.20;;;5.70;85.40;;;;;;5083237;28;20080;-68
2023/04/12 03:27:57;;;;;;;4.95;2.00;;;5.80;85.20;;;;;;5078646;28;20033;-68
2023/04/12 03:30:22;;;;;;;5.30;2.13;;;5.70;85.00;;;;;;5078866;28;20055;-65
2023/04/12 03:32:48;;;;;;;5.25;2.25;;;5.70;84.10;;;;;;5092326;28;20024;-67
2023/04/12 03:35:16;;;;;;;6.00;2.58;;;5.70;84.10;;;;;;5089735;28;20029;-67
2023/04/12 03:37:42;;;;;;;6.90;2.63;;;5.70;84.30;;;;;;5094986;28;20039;-66
2023/04/12 03:40:11;;;;;;;5.85;2.28;;;5.70;83.90;;;;;;5079982;28;20020;-67
2023/04/12 03:42:39;;;;;;;5.13;2.10;;;5.70;83.40;;;;;;5085877;28;20117;-67
2023/04/12 03:45:05;;;;;;;3.97;2.20;;;5.70;82.90;;;;;;5084318;28;20020;-68
2023/04/12 03:47:32;;;;;;;7.40;2.65;;;5.80;82.90;;;;;;5089166;28;20096;-68
2023/04/12 03:50:06;;;;;;;4.38;2.10;;;5.80;83.20;;;;;;5081146;28;20566;-66
2023/04/12 03:52:33;;;;;;;5.30;2.42;;;5.80;82.80;;;;;;5088453;28;20031;-67
2023/04/12 03:54:58;;;;;;;6.32;2.67;;;5.80;83.40;;;;;;5078090;28;20025;-67
2023/04/12 03:57:24;;;;;;;6.43;2.20;;;5.80;83.60;;;;;;5086986;28;20032;-67
2023/04/12 03:59:50;;;;;;;4.30;2.28;;;5.80;84.40;;;;;;5084941;28;20040;-68
2023/04/12 04:02:16;;;;;;;6.50;2.40;;;5.80;84.60;;;;;;5076236;28;20078;-68
2023/04/12 04:04:42;;;;;;;6.07;2.42;;;5.80;83.00;;;;;;5075006;28;20102;-67
2023/04/12 04:07:11;;;;;;;6.30;2.60;;;5.80;82.80;;;;;;5074567;28;20068;-67
2023/04/12 04:09:36;;;;;;;6.97;2.75;;;5.80;83.90;;;;;;5081629;28;20052;-68
2023/04/12 04:12:02;;;;;;;5.75;2.55;;;5.80;83.90;;;;;;5084868;28;20054;-68
2023/04/12 04:14:28;;;;;;;5.20;2.75;;;5.80;83.00;;;;;;5078706;28;20442;-68
2023/04/12 04:16:54;;;;;;;5.18;2.50;;;5.80;82.60;;;;;;5090569;28;20417;-68
2023/04/12 04:19:20;;;;;;;4.53;2.38;;;5.80;82.90;;;;;;5092554;28;20103;-67
2023/04/12 04:21:46;;;;;;;5.40;2.13;;;5.80;83.90;;;;;;5079183;28;20036;-68
2023/04/12 04:24:13;;;;;;;6.28;2.40;;;5.80;83.80;;;;;;5092053;28;20028;-67
2023/04/12 04:26:38;;;;;;;5.60;2.75;;;5.80;83.60;;;;;;5077570;28;20056;-67
2023/04/12 04:29:06;;;;;;;5.53;2.72;;;5.80;83.70;;;;;;5085495;28;20050;-67
2023/04/12 04:31:35;;;;;;;6.78;2.38;;;5.80;83.80;;;;;;5079751;28;20318;-68
2023/04/12 04:34:02;;;;;;;11.05;2.60;;;5.80;84.10;;;;;;5087782;28;20040;-68
2023/04/12 04:36:28;;;;;;;6.05;2.80;;;5.90;84.40;;;;;;5080470;28;20413;-68
2023/04/12 04:38:56;;;;;;;5.85;2.65;;;5.90;84.70;;;;;;5083251;28;20059;-67
2023/04/12 04:41:23;;;;;;;7.35;3.17;;;5.90;84.20;;;;;;5088260;28;20489;-67
2023/04/12 04:43:49;;;;;;;4.20;2.60;;;5.90;83.50;;;;;;5095544;28;20028;-68
2023/04/12 04:46:16;;;;;;;4.97;2.50;;;5.90;83.40;;;;;;5080888;28;20068;-67
2023/04/12 04:48:41;;;;;;;4.72;2.22;;;5.90;84.70;;;;;;5093004;28;20294;-67
2023/04/12 04:51:07;;;;;;;6.53;2.72;;;5.90;85.10;;;;;;5092910;28;20039;-67
2023/04/12 04:53:33;;;;;;;5.45;2.72;;;5.90;85.20;;;;;;5091019;28;20044;-67
2023/04/12 04:55:59;;;;;;;4.90;2.88;;;6.00;84.40;;;;;;5079361;28;20356;-67
2023/04/12 04:58:25;;;;;;;4.80;2.70;;;6.00;84.60;;;;;;5079764;28;20052;-67
2023/04/12 05:00:54;;;;;;;8.60;3.67;;;6.00;84.70;;;;;;5096310;28;20031;-67
2023/04/12 05:03:20;;;;;;;6.80;2.60;;;6.00;83.70;;;;;;5083538;28;20313;-67
2023/04/12 05:05:50;;;;;;;4.35;2.55;;;6.00;83.80;;;;;;5088373;28;20108;-67
2023/04/12 05:08:16;;;;;;;4.78;2.47;;;6.00;84.90;;;;;;5096945;28;20016;-67
2023/04/12 05:10:43;;;;;;;5.18;2.65;;;6.10;85.30;;;;;;5081157;28;20029;-67
2023/04/12 05:13:08;;;;;;;6.47;3.03;;;6.10;85.20;;;;;;5095339;28;20484;-67
2023/04/12 05:15:34;;;;;;;5.22;2.33;;;6.10;85.40;;;;;;5081479;28;20111;-67
2023/04/12 05:18:03;;;;;;;4.65;2.40;;;6.10;84.90;;;;;;5083040;28;20428;-67
2023/04/12 05:20:31;;;;;;;4.35;2.40;;;6.10;86.40;;;;;;5094564;28;20032;-67
2023/04/12 05:22:57;;;;;;;4.65;2.35;;;6.10;85.80;;;;;;5081581;28;20042;-67
2023/04/12 05:25:22;;;;;;;4.72;2.30;;;6.10;85.40;;;;;;5079688;28;20024;-67
2023/04/12 05:27:48;;;;;;;4.72;2.55;;;6.20;86.60;;;;;;5078648;28;20419;-67
2023/04/12 05:30:14;;;;;;;5.22;2.38;;;6.20;86.30;;;;;;5083245;28;20326;-68
2023/04/12 05:32:39;;;;;;;6.15;2.47;;;6.20;85.40;;;;;;5091163;28;20025;-68
2023/04/12 05:35:05;;;;;;;4.20;2.40;;;6.30;85.20;;;;;;5096174;28;20016;-68
2023/04/12 05:37:31;;;;;;;6.22;2.53;;;6.30;85.80;;;;;;5079464;28;20043;-68
2023/04/12 05:39:56;;;;;;;5.97;2.35;;;6.30;88.50;;;;;;5085586;28;20028;-68
2023/04/12 05:42:22;;;;;;;5.95;2.60;;;6.40;87.20;;;;;;5099055;28;20024;-68
2023/04/12 05:44:49;;;;;;;7.40;3.25;;;6.40;86.10;;;;;;5089176;28;20029;-68
2023/04/12 05:47:15;;;;;;;3.78;2.20;;;6.40;87.00;;;;;;5084933;28;20024;-68
2023/04/12 05:49:42;;;;;;;4.85;2.25;;;6.40;87.40;;;;;;5082560;28;20020;-68
2023/04/12 05:52:07;;;;;;;4.13;1.95;;;6.40;86.50;;;;;;5096789;28;20024;-68
2023/04/12 05:54:36;;;;;;;7.15;2.83;;;6.40;88.90;;;;;;5094001;28;20020;-68
2023/04/12 05:57:02;;;;;;;5.10;2.30;;;6.50;87.70;;;;;;5080201;28;20032;-67
2023/04/12 05:59:27;;;;;;;4.93;2.38;;;6.50;85.60;;;;;;5084915;28;20044;-67
2023/04/12 06:01:54;;;;;;;5.15;2.45;;;6.50;85.50;;;;;;5084864;28;20306;-67
2023/04/12 06:04:21;;;;;;;5.10;2.20;;;6.60;85.00;;;;;;5085736;28;20438;-67
2023/04/12 06:06:46;;;;;;;5.63;2.40;;;6.60;85.70;;;;;;5093109;28;20040;-68
2023/04/12 06:09:13;;;;;;;4.72;2.20;;;6.60;86.50;;;;;;5096255;28;20032;-69
2023/04/12 06:11:42;;;;;;;5.32;2.60;;;6.70;86.60;;;;;;5097594;28;20026;-69
2023/04/12 06:14:07;;;;;;;5.10;2.65;;;6.70;87.00;;;;;;5089362;28;20093;-68
2023/04/12 06:16:33;;;;;;;6.07;2.70;;;6.70;86.20;;;;;;5087916;28;20032;-68
2023/04/12 06:19:01;;;;;;;4.60;2.75;;;6.70;87.60;;;;;;5098310;28;20062;-68
2023/04/12 06:21:27;;;;;;;4.88;2.40;;;6.70;87.70;;;;;;5092693;28;20048;-68
2023/04/12 06:23:53;;;;;;;6.43;2.60;;;6.70;86.70;;;;;;5094185;28;20081;-68
2023/04/12 06:26:18;;;;;;;5.38;1.90;;;6.70;87.00;;;;;;5088631;28;20025;-67
2023/04/12 06:28:44;;;;;;;4.15;2.00;;;6.70;88.60;;;;;;5097394;28;20026;-68
2023/04/12 06:31:09;;;;;;;4.78;2.22;;;6.70;87.90;;;;;;5091106;28;20031;-68
2023/04/12 06:33:35;;;;;;;4.95;2.25;;;6.80;89.70;;;;;;5085680;28;20050;-69
2023/04/12 06:36:01;;;;;;;6.00;2.55;;;6.80;88.50;;;;;;5080769;28;20024;-67
2023/04/12 06:38:27;;;;;;;4.57;2.20;;;6.80;87.60;;;;;;5085508;28;20361;-67
2023/04/12 06:40:52;;;;;;;3.63;1.95;;;6.80;87.50;;;;;;5089060;28;20400;-68
2023/04/12 06:43:19;;;;;;;10.18;5.93;;;6.80;88.50;;;;;;5092266;28;20078;-67
2023/04/12 06:45:45;;;;;;;4.97;2.67;;;6.90;88.10;;;;;;5076878;28;20448;-67
2023/04/12 06:48:10;;;;;;;8.85;4.82;;;6.90;88.40;;;;;;5088188;28;20024;-67
2023/04/12 06:50:36;;;;;;;4.28;2.08;;;6.90;88.60;;;;;;5091764;28;20021;-68
2023/04/12 06:53:02;;;;;;;6.93;2.78;;;7.00;89.50;;;;;;5083057;28;20024;-67
2023/04/12 06:55:28;;;;;;;4.57;2.45;;;7.00;90.70;;;;;;5086565;28;20066;-67
2023/04/12 06:57:54;;;;;;;6.20;2.40;;;7.10;91.30;;;;;;5092157;28;20051;-67
2023/04/12 07:00:20;;;;;;;10.13;5.47;;;7.10;91.10;;;;;;5077723;28;20021;-67
2023/04/12 07:02:45;;;;;;;5.05;2.20;;;7.20;89.80;;;;;;5082060;28;20031;-67
2023/04/12 07:05:11;;;;;;;4.78;1.92;;;7.30;91.90;;;;;;5088832;28;20325;-67
2023/04/12 07:07:40;;;;;;;6.60;2.50;;;7.30;91.70;;;;;;5092465;28;20308;-68
2023/04/12 07:10:06;;;;;;;4.55;2.17;;;7.30;90.90;;;;;;5097354;28;20069;-67
2023/04/12 07:12:32;;;;;;;4.78;2.00;;;7.30;91.70;;;;;;5087971;28;20028;-67
2023/04/12 07:14:58;;;;;;;7.03;3.40;;;7.30;92.50;;;;;;5080855;28;20591;-66
2023/04/12 07:17:25;;;;;;;4.70;2.22;;;7.30;91.40;;;;;;5080774;28;20073;-67
2023/04/12 07:19:52;;;;;;;4.13;2.28;;;7.20;90.70;;;;;;5097105;28;20012;-67
2023/04/12 07:22:18;;;;;;;4.45;2.30;;;7.30;89.90;;;;;;5081972;28;20094;-67
2023/04/12 07:24:43;;;;;;;5.15;2.33;;;7.30;91.30;;;;;;5094044;28;20036;-66
2023/04/12 07:27:10;;;;;;;4.63;2.00;;;7.40;90.30;;;;;;5078046;28;20108;-67
2023/04/12 07:29:36;;;;;;;4.70;2.40;;;7.50;91.60;;;;;;5081939;28;20020;-66
2023/04/12 07:32:03;;;;;;;7.70;2.20;;;7.60;92.60;;;;;;5084934;28;20129;-67
2023/04/12 07:34:29;;;;;;;5.40;1.95;;;7.70;95.60;;;;;;5083047;28;20380;-67
2023/04/12 07:36:55;;;;;;;4.70;2.13;;;7.80;95.80;;;;;;5075604;28;20037;-66
2023/04/12 07:39:20;;;;;;;5.15;2.20;;;7.90;96.30;;;;;;5079564;28;20299;-67
2023/04/12 07:41:48;;;;;;;6.68;2.30;;;8.00;94.60;;;;;;5078565;28;20035;-67
2023/04/12 07:44:14;;;;;;;6.85;2.10;;;8.10;96.00;;;;;;5074482;28;20174;-67
2023/04/12 07:46:40;;;;;;;6.05;2.08;;;8.30;97.00;;;;;;5087050;28;20044;-66
2023/04/12 07:49:07;;;;;;;6.05;2.03;;;8.40;97.20;;;;;;5087294;28;20321;-67
2023/04/12 07:51:32;;;;;;;4.38;1.90;;;8.60;98.00;;;;;;5080120;28;20035;-67
2023/04/12 07:53:58;;;;;;;4.85;1.75;;;8.80;98.00;;;;;;5083021;28;20328;-67
2023/04/12 07:56:24;;;;;;;5.55;2.13;;;9.10;98.00;;;;;;5077261;28;20290;-66
2023/04/12 07:58:50;;;;;;;5.65;2.00;;;9.40;98.00;;;;;;5079535;28;20048;-66
2023/04/12 08:01:15;;;;;;;6.05;1.67;;;9.70;98.00;;;;;;5078152;28;20032;-67
2023/04/12 08:03:41;;;;;;;4.90;1.83;;;9.90;97.50;;;;;;5088370;28;20569;-66
2023/04/12 08:06:07;;;;;;;3.47;1.73;;;10.10;97.30;;;;;;5074034;28;20082;-66
2023/04/12 08:08:33;;;;;;;3.83;1.55;;;10.30;97.00;;;;;;5089889;28;20024;-66
2023/04/12 08:10:59;;;;;;;5.75;1.30;;;10.40;96.90;;;;;;5080469;28;20408;-66
2023/04/12 08:13:25;;;;;;;6.35;2.15;;;10.60;96.80;;;;;;5087128;28;20038;-66
2023/04/12 08:15:51;;;;;;;4.85;1.63;;;10.90;96.50;;;;;;5080112;28;20114;-66
2023/04/12 08:18:16;;;;;;;5.13;1.80;;;10.90;95.40;;;;;;5082938;28;20041;-66
2023/04/12 08:20:45;;;;;;;6.50;1.80;;;11.00;95.20;;;;;;5077359;28;20103;-66
2023/04/12 08:23:11;;;;;;;5.38;1.58;;;10.90;95.30;;;;;;5076323;28;20111;-66
2023/04/12 08:25:37;;;;;;;4.95;1.77;;;10.90;95.40;;;;;;5076397;28;20391;-66
2023/04/12 08:28:03;;;;;;;5.13;1.65;;;11.00;95.60;;;;;;5079610;28;20052;-66
2023/04/12 08:30:29;;;;;;;5.15;2.00;;;11.30;96.40;;;;;;5083421;28;20452;-66
2023/04/12 08:32:55;;;;;;;3.95;1.70;;;11.60;95.00;;;;;;5076481;28;20028;-67
2023/04/12 08:35:21;;;;;;;5.15;1.92;;;11.90;94.70;;;;;;5085821;28;20028;-66
2023/04/12 08:37:47;;;;;;;4.50;1.80;;;11.90;93.80;;;;;;5074916;28;20189;-66
2023/04/12 08:40:14;;;;;;;4.18;1.67;;;12.10;94.40;;;;;;5080479;28;20109;-66
2023/04/12 08:42:40;;;;;;;5.10;1.65;;;12.20;92.30;;;;;;5079121;28;20502;-66
2023/04/12 08:45:07;;;;;;;5.05;2.10;;;12.20;91.60;;;;;;5076136;28;20029;-66
2023/04/12 08:47:35;;;;;;;5.30;1.67;;;12.20;93.70;;;;;;5082807;28;20405;-66
2023/04/12 08:50:01;;;;;;;3.55;1.55;;;12.10;92.30;;;;;;5086582;28;20321;-66
2023/04/12 08:52:27;;;;;;;4.22;2.17;;;12.10;91.80;;;;;;5076060;28;21581;-66
2023/04/12 08:54:54;;;;;;;4.22;1.50;;;12.20;92.60;;;;;;5082990;28;20032;-65
2023/04/12 08:57:20;;;;;;;5.40;2.05;;;12.40;90.90;;;;;;5081999;28;20027;-65
2023/04/12 08:59:49;;;;;;;3.60;1.60;;;12.50;89.50;;;;;;5080866;28;20075;-65
2023/04/12 09:02:14;;;;;;;5.15;2.10;;;12.30;88.70;;;;;;5079036;28;20028;-67
2023/04/12 09:04:47;;;;;;;6.38;2.35;;;12.40;90.20;;;;;;5076988;28;20042;-68
2023/04/12 09:07:13;;;;;;;7.00;1.83;;;12.40;87.30;;;;;;5089574;28;20055;-67
2023/04/12 09:09:46;;;;;;;3.97;1.85;;;12.30;88.10;;;;;;5076135;28;20025;-67
2023/04/12 09:12:13;;;;;;;6.40;2.05;;;12.50;86.90;;;;;;5081151;28;20319;-67
2023/04/12 09:14:50;;;;;;;5.22;1.60;;;12.80;86.50;;;;;;5076368;28;20024;-67
2023/04/12 09:17:26;;;;;;;5.72;1.80;;;12.80;87.00;;;;;;5079748;28;20063;-66
2023/04/12 09:19:53;;;;;;;6.88;2.28;;;13.10;85.30;;;;;;5076907;28;20032;-67
2023/04/12 09:22:35;;;;;;;7.65;1.70;;;13.10;83.00;;;;;;5073116;28;20098;-67
2023/04/12 09:25:01;;;;;;;7.80;1.77;;;13.10;84.40;;;;;;5077740;28;20025;-66
2023/04/12 09:27:30;;;;;;;6.30;1.70;;;13.30;82.90;;;;;;5085307;28;20425;-66
2023/04/12 09:30:08;;;;;;;3.83;1.60;;;13.30;83.20;;;;;;5091134;28;20059;-67
2023/04/12 09:32:34;;;;;;;8.05;2.13;;;13.30;83.20;;;;;;5080160;28;20624;-66
2023/04/12 09:35:01;;;;;;;6.50;2.55;;;13.50;84.30;;;;;;5078135;28;20020;-67
2023/04/12 09:37:26;;;;;;;6.32;1.85;;;13.30;82.70;;;;;;5078331;28;20044;-66
2023/04/12 09:40:06;;;;;;;5.65;1.70;;;13.20;83.50;;;;;;5078384;28;20377;-67
2023/04/12 09:42:47;;;;;;;6.90;2.00;;;13.20;83.10;;;;;;5078674;28;20036;-67
2023/04/12 09:45:25;;;;;;;5.78;1.92;;;12.90;83.60;;;;;;5089036;28;20032;-66
2023/04/12 09:47:53;;;;;;;5.13;1.75;;;13.00;83.80;;;;;;5082792;28;20132;-67
2023/04/12 09:50:25;;;;;;;7.10;2.13;;;12.80;84.70;;;;;;5095342;28;20039;-67
2023/04/12 09:52:52;;;;;;;3.83;1.63;;;12.60;85.20;;;;;;5087234;28;20656;-67
2023/04/12 09:55:21;;;;;;;6.07;1.60;;;12.60;86.90;;;;;;5089390;28;20052;-67
2023/04/12 09:57:50;;;;;;;6.18;1.90;;;12.40;85.90;;;;;;5077521;28;20317;-67
2023/04/12 10:00:16;;;;;;;6.13;1.60;;;12.40;86.70;;;;;;5080093;28;20321;-67
2023/04/12 10:02:46;;;;;;;5.10;1.60;;;12.30;86.30;;;;;;5089742;28;20043;-67
2023/04/12 10:05:14;;;;;;;6.93;2.08;;;12.30;86.50;;;;;;5061121;28;20028;-66
2023/04/12 10:07:43;;;;;;;5.57;2.05;;;12.30;86.50;;;;;;5081204;28;20305;-66
2023/04/12 10:10:13;;;;;;;5.55;1.65;;;12.50;86.90;;;;;;5077638;28;20078;-67
2023/04/12 10:12:40;;;;;;;4.85;1.67;;;12.50;87.50;;;;;;5078223;28;20024;-67
2023/04/12 10:15:11;;;;;;;4.82;1.60;;;12.60;87.80;;;;;;5083033;28;20025;-67
2023/04/12 10:17:42;;;;;;;5.85;1.77;;;12.60;87.60;;;;;;5084921;28;20054;-67
2023/04/12 10:20:08;;;;;;;5.53;1.60;;;12.50;87.80;;;;;;5079995;28;20107;-67
2023/04/12 10:22:35;;;;;;;4.07;1.40;;;12.60;88.20;;;;;;5088081;28;20045;-67
2023/04/12 10:25:01;;;;;;;4.47;1.40;;;12.30;89.50;;;;;;5079226;28;20020;-67
2023/04/12 10:27:27;;;;;;;4.78;1.52;;;12.30;90.30;;;;;;5082167;28;20028;-67
2023/04/12 10:29:52;;;;;;;6.07;1.58;;;12.20;90.10;;;;;;5084346;28;20032;-67
2023/04/12 10:32:22;;;;;;;6.47;1.80;;;12.00;90.40;;;;;;5080816;28;20016;-67
2023/04/12 10:34:59;;;;;;;4.45;1.75;;;12.00;91.50;;;;;;5094617;28;20023;-67
2023/04/12 10:37:56;;;;;;;5.13;1.60;;;12.10;91.50;;;;;;5083063;28;20053;-67
2023/04/12 10:40:21;;;;;;;4.63;1.70;;;11.80;92.50;;;;;;5091227;28;20287;-67
2023/04/12 10:42:47;;;;;;;3.58;1.50;;;11.60;92.90;;;;;;5076717;28;20035;-67
2023/04/12 10:45:21;;;;;;;5.75;1.73;;;11.60;93.10;;;;;;5077816;28;20026;-67
2023/04/12 10:47:47;;;;;;;;;;;11.90;93.70;;;;;;5083252;28;20052;-67
2023/04/12 10:50:28;;;;;;;4.70;1.70;;;12.10;92.80;;;;;;5082372;28;19951;-67
2023/04/12 10:53:12;;;;;;;4.05;1.80;;;12.30;91.40;;;;;;5086453;28;20032;-66
2023/04/12 10:55:38;;;;;;;4.95;1.40;;;12.30;92.30;;;;;;5089199;28;20028;-67
2023/04/12 10:58:04;;;;;;;4.82;1.67;;;12.20;91.10;;;;;;5089650;28;20131;-67
2023/04/12 11:00:54;;;;;;;3.70;1.30;;;12.40;91.20;;;;;;5083932;28;20111;-67
2023/04/12 11:03:20;;;;;;;3.55;1.60;;;12.00;92.20;;;;;;5086813;28;20116;-67
2023/04/12 11:06:05;;;;;;;9.25;3.60;;;11.90;93.20;;;;;;5083348;28;20107;-67
2023/04/12 11:08:31;;;;;;;18.65;7.53;;;11.70;93.20;;;;;;5073337;28;20044;-67
2023/04/12 11:11:17;;;;;;;4.78;1.70;;;11.80;92.90;;;;;;5092016;28;20020;-67
2023/04/12 11:13:43;;;;;;;5.13;1.25;;;12.00;92.60;;;;;;5075789;28;20056;-66
2023/04/12 11:16:13;;;;;;;3.20;1.15;;;12.40;90.50;;;;;;5089435;28;20114;-67
2023/04/12 11:18:45;;;;;;;2.65;1.05;;;12.30;90.40;;;;;;5080739;28;20036;-66
2023/04/12 11:21:12;;;;;;;3.83;1.00;;;12.40;90.50;;;;;;5083702;28;20032;-67
2023/04/12 11:23:39;;;;;;;2.40;0.90;;;12.80;88.80;;;;;;5074163;28;20025;-67
2023/04/12 11:26:05;;;;;;;2.88;1.00;;;13.30;88.60;;;;;;5087368;28;20020;-66
2023/04/12 11:28:31;;;;;;;2.60;1.08;;;13.40;86.70;;;;;;5077432;28;20031;-67
2023/04/12 11:30:57;;;;;;;5.57;2.78;;;13.50;86.90;;;;;;5078645;28;20047;-66
2023/04/12 11:33:41;;;;;;;3.30;1.48;;;13.90;87.40;;;;;;5082117;28;20039;-66
2023/04/12 11:36:08;;;;;;;1.58;0.80;;;14.00;86.10;;;;;;5086566;28;20107;-66
2023/04/12 11:38:36;;;;;;;3.38;1.00;;;14.40;85.90;;;;;;5083702;28;20044;-67
2023/04/12 11:41:05;;;;;;;3.17;1.13;;;14.60;83.00;;;;;;5084159;28;20024;-67
2023/04/12 11:43:37;;;;;;;3.67;1.15;;;14.20;85.10;;;;;;5080746;28;20034;-67
2023/04/12 11:46:03;;;;;;;3.40;1.05;;;14.40;84.70;;;;;;5077258;28;21662;-65
2023/04/12 11:48:29;;;;;;;2.72;0.93;;;14.30;84.70;;;;;;5080916;28;20069;-65
2023/04/12 11:50:58;;;;;;;2.53;0.90;;;14.20;85.10;;;;;;5082627;28;20129;-64
2023/04/12 11:53:28;;;;;;;3.63;1.10;;;14.00;85.60;;;;;;5080797;28;20020;-64
2023/04/12 11:55:57;;;;;;;2.10;0.90;;;14.40;85.80;;;;;;5086273;28;20028;-64
2023/04/12 11:58:26;;;;;;;2.60;0.98;;;14.30;85.00;;;;;;5088321;28;20066;-66
2023/04/12 12:00:52;;;;;;;3.22;0.95;;;14.40;86.00;;;;;;5079323;28;20437;-67
2023/04/12 12:03:18;;;;;;;3.17;0.90;;;14.20;85.30;;;;;;5076859;28;20063;-66
2023/04/12 12:05:45;;;;;;;3.30;1.00;;;14.20;86.80;;;;;;5083525;28;20188;-66
2023/04/12 12:08:11;;;;;;;3.35;0.98;;;14.80;85.80;;;;;;5077873;28;20056;-67
2023/04/12 12:10:40;;;;;;;4.13;1.20;;;15.20;84.50;;;;;;5082669;28;20028;-66
2023/04/12 12:13:10;;;;;;;2.33;0.98;;;15.40;83.40;;;;;;5075006;28;20024;-65
2023/04/12 12:15:36;;;;;;;2.55;1.05;;;14.90;83.90;;;;;;5080851;28;20028;-65
2023/04/12 12:18:06;;;;;;;2.55;1.08;;;14.90;85.90;;;;;;5082966;28;20044;-66
2023/04/12 12:20:32;;;;;;;4.18;1.17;;;14.80;85.90;;;;;;5081037;28;20035;-65
2023/04/12 12:22:58;;;;;;;2.53;0.93;;;15.00;84.30;;;;;;5080902;28;20036;-66
2023/04/12 12:25:23;;;;;;;3.63;1.35;;;14.90;85.60;;;;;;5077616;28;20025;-66
2023/04/12 12:27:56;;;;;;;3.80;0.90;;;15.10;85.40;;;;;;5077118;28;20038;-66
2023/04/12 12:30:22;;;;;;;2.35;0.85;;;15.10;83.30;;;;;;5080445;28;20040;-66
2023/04/12 12:32:53;;;;;;;2.22;0.73;;;15.20;83.20;;;;;;5078483;28;20028;-66
2023/04/12 12:35:18;;;;;;;2.30;1.15;;;15.20;84.10;;;;;;5076534;28;20040;-66
2023/04/12 12:37:52;;;;;;;3.35;1.33;;;15.40;85.00;;;;;;5073863;28;20348;-66
2023/04/12 12:40:20;;;;;;;3.00;0.90;;;15.80;82.00;;;;;;5073884;28;20078;-64
2023/04/12 12:42:50;;;;;;;2.97;0.90;;;15.50;82.20;;;;;;5072725;28;20478;-65
2023/04/12 12:45:18;;;;;;;3.65;0.90;;;14.90;82.50;;;;;;5079969;28;20032;-65
2023/04/12 12:47:52;;;;;;;4.13;1.15;;;14.80;84.40;;;;;;5078788;28;20417;-65
2023/04/12 12:50:21;;;;;;;2.67;0.98;;;14.50;83.40;;;;;;5079990;28;20051;-65
2023/04/12 12:52:47;;;;;;;3.75;1.20;;;14.60;84.00;;;;;;5090991;28;20024;-65
2023/04/12 12:55:14;;;;;;;5.07;1.77;;;15.10;83.60;;;;;;5085644;28;20093;-65
2023/04/12 12:57:42;;;;;;;6.35;2.25;;;15.20;82.50;;;;;;5082117;28;20020;-65